sensor_id;sensor_type;location;lat;lon;timestamp;pressure;altitude;pressure_sealevel;temperature;humidity
6565;BME280;3316;44.118;27.258;2024-02-14T00:01:48;100820.03;;;8.95;100.00
6565;BME280;3316;44.118;27.258;2024-02-14T00:04:14;100777.22;;;8.71;100.00
6565;BME280;3316;44.118;27.258;2024-02-14T00:06:39;100807.81;;;8.81;100.00
6565;BME280;3316;44.118;27.258;2024-02-14T00:09:05;100818.28;;;8.90;100.00
6565;BME280;3316;44.118;27.258;2024-02-14T00:11:32;100814.81;;;8.86;100.00
6565;BME280;3316;44.118;27.258;2024-02-14T00:13:57;100786.81;;;8.72;100.00
6565;BME280;3316;44.118;27.258;2024-02-14T00:16:24;100814.78;;;8.82;100.00
6565;BME280;3316;44.118;27.258;2024-02-14T00:18:50;100808.69;;;8.90;100.00
6565;BME280;3316;44.118;27.258;2024-02-14T00:21:16;100819.16;;;8.90;100.00
6565;BME280;3316;44.118;27.258;2024-02-14T00:23:41;100816.53;;;8.86;100.00
6565;BME280;3316;44.118;27.258;2024-02-14T00:26:07;100825.28;;;8.80;100.00
6565;BME280;3316;44.118;27.258;2024-02-14T00:28:32;100791.19;;;8.70;100.00
6565;BME280;3316;44.118;27.258;2024-02-14T00:30:58;100792.94;;;8.65;100.00
6565;BME280;3316;44.118;27.258;2024-02-14T00:33:23;100813.94;;;8.77;100.00
6565;BME280;3316;44.118;27.258;2024-02-14T00:35:49;100792.94;;;8.56;100.00
6565;BME280;3316;44.118;27.258;2024-02-14T00:38:14;100816.56;;;8.68;100.00
6565;BME280;3316;44.118;27.258;2024-02-14T00:40:40;100806.06;;;8.65;100.00
6565;BME280;3316;44.118;27.258;2024-02-14T00:43:05;100792.94;;;8.53;100.00
6565;BME280;3316;44.118;27.258;2024-02-14T00:45:30;100785.94;;;8.56;100.00
6565;BME280;3316;44.118;27.258;2024-02-14T00:47:56;100820.03;;;8.80;100.00
6565;BME280;3316;44.118;27.258;2024-02-14T00:50:21;100826.16;;;8.75;100.00
6565;BME280;3316;44.118;27.258;2024-02-14T00:52:47;100819.16;;;8.74;100.00
6565;BME280;3316;44.118;27.258;2024-02-14T00:55:13;100793.81;;;8.53;100.00
6565;BME280;3316;44.118;27.258;2024-02-14T00:57:38;100826.19;;;8.73;100.00
6565;BME280;3316;44.118;27.258;2024-02-14T01:00:04;100799.03;;;8.70;100.00
6565;BME280;3316;44.118;27.258;2024-02-14T01:02:31;100821.78;;;8.86;100.00
6565;BME280;3316;44.118;27.258;2024-02-14T01:04:57;100801.66;;;8.70;100.00
6565;BME280;3316;44.118;27.258;2024-02-14T01:07:22;100832.31;;;8.83;100.00
6565;BME280;3316;44.118;27.258;2024-02-14T01:09:48;100835.81;;;8.83;100.00
6565;BME280;3316;44.118;27.258;2024-02-14T01:12:13;100839.28;;;8.76;100.00
6565;BME280;3316;44.118;27.258;2024-02-14T01:14:39;100835.81;;;8.85;100.00
6565;BME280;3316;44.118;27.258;2024-02-14T01:17:04;100838.41;;;8.85;100.00
6565;BME280;3316;44.118;27.258;2024-02-14T01:19:29;100778.06;;;8.55;100.00
6565;BME280;3316;44.118;27.258;2024-02-14T01:21:55;100832.28;;;8.80;100.00
6565;BME280;3316;44.118;27.258;2024-02-14T01:24:22;100841.94;;;8.79;100.00
6565;BME280;3316;44.118;27.258;2024-02-14T01:26:48;100851.53;;;8.74;100.00
6565;BME280;3316;44.118;27.258;2024-02-14T01:29:14;100826.16;;;8.57;100.00
6565;BME280;3316;44.118;27.258;2024-02-14T01:31:42;100809.56;;;8.50;100.00
6565;BME280;3316;44.118;27.258;2024-02-14T01:34:07;100823.53;;;8.72;100.00
6565;BME280;3316;44.118;27.258;2024-02-14T01:36:33;100785.06;;;8.51;100.00
6565;BME280;3316;44.118;27.258;2024-02-14T01:38:58;100841.91;;;8.82;100.00
6565;BME280;3316;44.118;27.258;2024-02-14T01:41:23;100849.78;;;8.78;100.00
6565;BME280;3316;44.118;27.258;2024-02-14T01:43:49;100847.16;;;8.73;100.00
6565;BME280;3316;44.118;27.258;2024-02-14T01:46:15;100847.16;;;8.84;100.00
6565;BME280;3316;44.118;27.258;2024-02-14T01:48:41;100854.16;;;8.82;100.00
6565;BME280;3316;44.118;27.258;2024-02-14T01:51:08;100855.03;;;8.73;100.00
6565;BME280;3316;44.118;27.258;2024-02-14T01:53:36;100782.44;;;8.29;100.00
6565;BME280;3316;44.118;27.258;2024-02-14T01:56:03;100855.91;;;8.71;100.00
6565;BME280;3316;44.118;27.258;2024-02-14T01:58:29;100827.91;;;8.67;100.00
6565;BME280;3316;44.118;27.258;2024-02-14T02:00:55;100829.69;;;8.62;100.00
6565;BME280;3316;44.118;27.258;2024-02-14T02:03:25;100858.53;;;8.81;100.00
6565;BME280;3316;44.118;27.258;2024-02-14T02:05:52;100855.03;;;8.73;100.00
6565;BME280;3316;44.118;27.258;2024-02-14T02:08:17;100828.78;;;8.52;100.00
6565;BME280;3316;44.118;27.258;2024-02-14T02:10:43;100862.00;;;8.67;100.00
6565;BME280;3316;44.118;27.258;2024-02-14T02:13:08;100841.03;;;8.65;100.00
6565;BME280;3316;44.118;27.258;2024-02-14T02:15:37;100832.28;;;8.51;100.00
6565;BME280;3316;44.118;27.258;2024-02-14T02:18:04;100849.78;;;8.79;100.00
6565;BME280;3316;44.118;27.258;2024-02-14T02:20:32;100854.13;;;8.70;100.00
6565;BME280;3316;44.118;27.258;2024-02-14T02:22:58;100855.03;;;8.69;100.00
6565;BME280;3316;44.118;27.258;2024-02-14T02:25:24;100853.28;;;8.63;100.00
6565;BME280;3316;44.118;27.258;2024-02-14T02:27:52;100856.75;;;8.53;100.00
6565;BME280;3316;44.118;27.258;2024-02-14T02:30:20;100859.38;;;8.56;100.00
6565;BME280;3316;44.118;27.258;2024-02-14T02:32:45;100861.13;;;8.56;100.00
6565;BME280;3316;44.118;27.258;2024-02-14T02:35:11;100871.59;;;8.47;100.00
6565;BME280;3316;44.118;27.258;2024-02-14T02:37:36;100861.97;;;8.38;100.00
6565;BME280;3316;44.118;27.258;2024-02-14T02:40:02;100866.34;;;8.35;100.00
6565;BME280;3316;44.118;27.258;2024-02-14T02:42:27;100848.78;;;8.22;100.00
6565;BME280;3316;44.118;27.258;2024-02-14T02:44:54;100873.34;;;8.48;100.00
6565;BME280;3316;44.118;27.258;2024-02-14T02:47:19;100870.66;;;8.25;100.00
6565;BME280;3316;44.118;27.258;2024-02-14T02:49:45;100891.69;;;8.33;100.00
6565;BME280;3316;44.118;27.258;2024-02-14T02:52:10;100885.56;;;8.31;100.00
6565;BME280;3316;44.118;27.258;2024-02-14T02:54:37;100877.69;;;8.31;100.00
6565;BME280;3316;44.118;27.258;2024-02-14T02:57:09;100896.09;;;8.46;100.00
6565;BME280;3316;44.118;27.258;2024-02-14T02:59:35;100889.06;;;8.36;100.00
6565;BME280;3316;44.118;27.258;2024-02-14T03:02:01;100893.44;;;8.32;100.00
6565;BME280;3316;44.118;27.258;2024-02-14T03:04:27;100895.16;;;8.29;100.00
6565;BME280;3316;44.118;27.258;2024-02-14T03:06:53;100907.38;;;8.31;100.00
6565;BME280;3316;44.118;27.258;2024-02-14T03:09:19;100912.66;;;8.36;100.00
6565;BME280;3316;44.118;27.258;2024-02-14T03:11:47;100912.66;;;8.39;100.00
6565;BME280;3316;44.118;27.258;2024-02-14T03:14:13;100917.03;;;8.37;100.00
6565;BME280;3316;44.118;27.258;2024-02-14T03:16:39;100886.31;;;8.11;100.00
6565;BME280;3316;44.118;27.258;2024-02-14T03:19:04;100912.59;;;8.25;100.00
6565;BME280;3316;44.118;27.258;2024-02-14T03:21:30;100915.25;;;8.28;100.00
6565;BME280;3316;44.118;27.258;2024-02-14T03:23:58;100918.72;;;8.26;100.00
6565;BME280;3316;44.118;27.258;2024-02-14T03:26:24;100913.53;;;8.38;100.00
6565;BME280;3316;44.118;27.258;2024-02-14T03:28:49;100906.44;;;8.22;100.00
6565;BME280;3316;44.118;27.258;2024-02-14T03:31:15;100896.78;;;8.08;100.00
6565;BME280;3316;44.118;27.258;2024-02-14T03:33:41;100916.09;;;8.23;100.00
6565;BME280;3316;44.118;27.258;2024-02-14T03:36:07;100918.66;;;8.21;100.00
6565;BME280;3316;44.118;27.258;2024-02-14T03:38:32;100934.47;;;8.32;100.00
6565;BME280;3316;44.118;27.258;2024-02-14T03:40:58;100932.72;;;8.26;100.00
6565;BME280;3316;44.118;27.258;2024-02-14T03:43:23;100930.03;;;8.22;100.00
6565;BME280;3316;44.118;27.258;2024-02-14T03:45:49;100920.38;;;8.10;100.00
6565;BME280;3316;44.118;27.258;2024-02-14T03:48:15;100934.41;;;8.18;100.00
6565;BME280;3316;44.118;27.258;2024-02-14T03:50:42;100923.00;;;8.07;100.00
6565;BME280;3316;44.118;27.258;2024-02-14T03:53:08;100931.78;;;8.15;100.00
6565;BME280;3316;44.118;27.258;2024-02-14T03:55:36;100924.78;;;8.11;100.00
6565;BME280;3316;44.118;27.258;2024-02-14T03:58:02;100927.38;;;8.05;100.00
6565;BME280;3316;44.118;27.258;2024-02-14T04:00:29;100952.75;;;8.15;100.00
6565;BME280;3316;44.118;27.258;2024-02-14T04:02:55;100950.13;;;8.15;100.00
6565;BME280;3316;44.118;27.258;2024-02-14T04:05:27;100951.06;;;8.26;100.00
6565;BME280;3316;44.118;27.258;2024-02-14T04:07:53;100908.09;;;7.97;100.00
6565;BME280;3316;44.118;27.258;2024-02-14T04:10:20;100938.69;;;8.05;100.00
6565;BME280;3316;44.118;27.258;2024-02-14T04:12:46;100922.06;;;7.94;100.00
6565;BME280;3316;44.118;27.258;2024-02-14T04:15:11;100954.44;;;8.11;100.00
6565;BME280;3316;44.118;27.258;2024-02-14T04:17:38;100958.00;;;8.17;100.00
6565;BME280;3316;44.118;27.258;2024-02-14T04:20:03;100941.38;;;8.18;100.00
6565;BME280;3316;44.118;27.258;2024-02-14T04:22:30;100952.75;;;8.20;100.00
6565;BME280;3316;44.118;27.258;2024-02-14T04:24:56;100969.34;;;8.22;100.00
6565;BME280;3316;44.118;27.258;2024-02-14T04:27:21;100974.56;;;8.16;100.00
6565;BME280;3316;44.118;27.258;2024-02-14T04:29:47;100974.59;;;8.22;100.00
6565;BME280;3316;44.118;27.258;2024-02-14T04:32:13;100972.94;;;8.30;100.00
6565;BME280;3316;44.118;27.258;2024-02-14T04:34:39;100967.63;;;8.22;100.00
6565;BME280;3316;44.118;27.258;2024-02-14T04:37:05;100978.09;;;8.24;100.00
6565;BME280;3316;44.118;27.258;2024-02-14T04:39:38;100966.72;;;8.17;100.00
6565;BME280;3316;44.118;27.258;2024-02-14T04:42:04;100968.44;;;8.10;100.00
6565;BME280;3316;44.118;27.258;2024-02-14T04:44:30;100986.00;;;8.25;100.00
6565;BME280;3316;44.118;27.258;2024-02-14T04:46:57;100992.06;;;8.20;100.00
6565;BME280;3316;44.118;27.258;2024-02-14T04:49:24;100990.28;;;8.13;100.00
6565;BME280;3316;44.118;27.258;2024-02-14T04:51:50;100992.91;;;8.16;100.00
6565;BME280;3316;44.118;27.258;2024-02-14T04:54:16;101004.38;;;8.27;100.00
6565;BME280;3316;44.118;27.258;2024-02-14T04:56:41;100988.59;;;8.21;100.00
6565;BME280;3316;44.118;27.258;2024-02-14T04:59:08;101003.41;;;8.14;100.00
6565;BME280;3316;44.118;27.258;2024-02-14T05:01:34;100970.06;;;7.89;100.00
6565;BME280;3316;44.118;27.258;2024-02-14T05:04:00;100985.78;;;7.90;100.00
6565;BME280;3316;44.118;27.258;2024-02-14T05:06:25;101021.78;;;8.17;100.00
6565;BME280;3316;44.118;27.258;2024-02-14T05:08:51;101013.88;;;8.11;100.00
6565;BME280;3316;44.118;27.258;2024-02-14T05:11:19;101028.72;;;8.10;100.00
6565;BME280;3316;44.118;27.258;2024-02-14T05:13:45;101016.47;;;8.06;100.00
6565;BME280;3316;44.118;27.258;2024-02-14T05:16:12;101019.06;;;8.05;100.00
6565;BME280;3316;44.118;27.258;2024-02-14T05:18:37;101025.22;;;8.10;100.00
6565;BME280;3316;44.118;27.258;2024-02-14T05:21:07;101039.25;;;8.20;100.00
6565;BME280;3316;44.118;27.258;2024-02-14T05:23:33;101026.94;;;8.06;100.00
6565;BME280;3316;44.118;27.258;2024-02-14T05:25:59;101028.69;;;8.06;100.00
6565;BME280;3316;44.118;27.258;2024-02-14T05:28:25;100985.75;;;7.83;100.00
6565;BME280;3316;44.118;27.258;2024-02-14T05:30:51;100998.88;;;7.87;100.00
6565;BME280;3316;44.118;27.258;2024-02-14T05:33:16;101062.06;;;8.27;100.00
6565;BME280;3316;44.118;27.258;2024-02-14T05:35:43;101069.09;;;8.40;100.00
6565;BME280;3316;44.118;27.258;2024-02-14T05:38:09;101064.72;;;8.33;100.00
6565;BME280;3316;44.118;27.258;2024-02-14T05:40:34;101072.59;;;8.34;100.00
6565;BME280;3316;44.118;27.258;2024-02-14T05:43:03;101073.34;;;8.23;100.00
6565;BME280;3316;44.118;27.258;2024-02-14T05:45:28;101081.28;;;8.32;100.00
6565;BME280;3316;44.118;27.258;2024-02-14T05:47:54;101076.91;;;8.25;100.00
6565;BME280;3316;44.118;27.258;2024-02-14T05:50:19;101084.69;;;8.23;100.00
6565;BME280;3316;44.118;27.258;2024-02-14T05:52:45;101094.28;;;8.20;100.00
6565;BME280;3316;44.118;27.258;2024-02-14T05:55:10;101089.03;;;8.15;100.00
6565;BME280;3316;44.118;27.258;2024-02-14T05:57:35;101097.78;;;8.19;100.00
6565;BME280;3316;44.118;27.258;2024-02-14T06:00:01;101097.78;;;8.22;100.00
6565;BME280;3316;44.118;27.258;2024-02-14T06:02:28;101075.78;;;7.97;100.00
6565;BME280;3316;44.118;27.258;2024-02-14T06:04:53;101102.16;;;8.20;100.00
6565;BME280;3316;44.118;27.258;2024-02-14T06:07:18;101106.50;;;8.16;100.00
6565;BME280;3316;44.118;27.258;2024-02-14T06:09:44;101116.22;;;8.28;100.00
6565;BME280;3316;44.118;27.258;2024-02-14T06:12:10;101086.28;;;7.98;100.00
6565;BME280;3316;44.118;27.258;2024-02-14T06:14:36;101098.50;;;7.98;100.00
6565;BME280;3316;44.118;27.258;2024-02-14T06:17:02;101117.00;;;8.18;100.00
6565;BME280;3316;44.118;27.258;2024-02-14T06:19:27;101119.66;;;8.24;100.00
6565;BME280;3316;44.118;27.258;2024-02-14T06:21:53;101129.25;;;8.22;100.00
6565;BME280;3316;44.118;27.258;2024-02-14T06:24:19;101137.13;;;8.22;100.00
6565;BME280;3316;44.118;27.258;2024-02-14T06:26:45;101139.72;;;8.22;100.00
6565;BME280;3316;44.118;27.258;2024-02-14T06:29:10;101149.41;;;8.26;100.00
6565;BME280;3316;44.118;27.258;2024-02-14T06:31:36;101138.84;;;8.20;100.00
6565;BME280;3316;44.118;27.258;2024-02-14T06:34:01;101149.41;;;8.26;100.00
6565;BME280;3316;44.118;27.258;2024-02-14T06:36:27;101152.06;;;8.30;100.00
6565;BME280;3316;44.118;27.258;2024-02-14T06:38:52;101157.38;;;8.38;100.00
6565;BME280;3316;44.118;27.258;2024-02-14T06:41:18;101159.09;;;8.34;100.00
6565;BME280;3316;44.118;27.258;2024-02-14T06:43:45;101160.03;;;8.42;100.00
6565;BME280;3316;44.118;27.258;2024-02-14T06:46:11;101131.03;;;8.24;100.00
6565;BME280;3316;44.118;27.258;2024-02-14T06:48:36;101161.72;;;8.39;100.00
6565;BME280;3316;44.118;27.258;2024-02-14T06:51:02;101168.75;;;8.43;100.00
6565;BME280;3316;44.118;27.258;2024-02-14T06:53:27;101165.41;;;8.66;100.00
6565;BME280;3316;44.118;27.258;2024-02-14T06:55:52;101083.75;;;8.10;100.00
6565;BME280;3316;44.118;27.258;2024-02-14T06:58:18;101157.38;;;8.41;100.00
6565;BME280;3316;44.118;27.258;2024-02-14T07:00:44;101168.78;;;8.47;100.00
6565;BME280;3316;44.118;27.258;2024-02-14T07:03:09;101168.75;;;8.41;100.00
6565;BME280;3316;44.118;27.258;2024-02-14T07:05:35;101172.31;;;8.48;100.00
6565;BME280;3316;44.118;27.258;2024-02-14T07:08:00;101166.97;;;8.36;100.00
6565;BME280;3316;44.118;27.258;2024-02-14T07:10:26;101143.19;;;8.18;100.00
6565;BME280;3316;44.118;27.258;2024-02-14T07:12:52;101152.94;;;8.28;100.00
6565;BME280;3316;44.118;27.258;2024-02-14T07:15:17;101175.69;;;8.33;100.00
6565;BME280;3316;44.118;27.258;2024-02-14T07:17:43;101176.63;;;8.41;100.00
6565;BME280;3316;44.118;27.258;2024-02-14T07:20:08;101180.97;;;8.38;100.00
6565;BME280;3316;44.118;27.258;2024-02-14T07:22:35;101183.59;;;8.41;100.00
6565;BME280;3316;44.118;27.258;2024-02-14T07:25:01;101162.44;;;8.21;100.00
6565;BME280;3316;44.118;27.258;2024-02-14T07:27:26;101187.19;;;8.50;100.00
6565;BME280;3316;44.118;27.258;2024-02-14T07:29:52;101188.88;;;8.44;100.00
6565;BME280;3316;44.118;27.258;2024-02-14T07:32:18;101161.63;;;8.25;100.00
6565;BME280;3316;44.118;27.258;2024-02-14T07:34:43;101189.78;;;8.49;100.00
6565;BME280;3316;44.118;27.258;2024-02-14T07:37:09;101200.47;;;8.82;100.00
6565;BME280;3316;44.118;27.258;2024-02-14T07:39:34;101206.69;;;8.93;100.00
6565;BME280;3316;44.118;27.258;2024-02-14T07:42:01;101211.09;;;8.97;100.00
6565;BME280;3316;44.118;27.258;2024-02-14T07:44:27;101213.72;;;8.97;100.00
6565;BME280;3316;44.118;27.258;2024-02-14T07:46:52;101198.84;;;9.02;100.00
6565;BME280;3316;44.118;27.258;2024-02-14T07:49:18;101202.41;;;9.13;100.00
6565;BME280;3316;44.118;27.258;2024-02-14T07:51:45;101212.97;;;9.22;100.00
6565;BME280;3316;44.118;27.258;2024-02-14T07:54:10;101231.34;;;9.24;100.00
6565;BME280;3316;44.118;27.258;2024-02-14T07:56:36;101238.38;;;9.35;100.00
6565;BME280;3316;44.118;27.258;2024-02-14T07:59:01;101206.78;;;9.16;100.00
6565;BME280;3316;44.118;27.258;2024-02-14T08:01:27;101238.41;;;9.43;100.00
6565;BME280;3316;44.118;27.258;2024-02-14T08:03:53;101222.69;;;9.49;100.00
6565;BME280;3316;44.118;27.258;2024-02-14T08:06:19;101243.66;;;9.37;100.00
6565;BME280;3316;44.118;27.258;2024-02-14T08:08:45;101237.38;;;9.09;100.00
6565;BME280;3316;44.118;27.258;2024-02-14T08:11:10;101253.19;;;9.18;100.00
6565;BME280;3316;44.118;27.258;2024-02-14T08:13:36;101259.41;;;9.32;100.00
6565;BME280;3316;44.118;27.258;2024-02-14T08:16:05;101254.94;;;9.19;100.00
6565;BME280;3316;44.118;27.258;2024-02-14T08:18:30;101252.44;;;9.43;100.00
6565;BME280;3316;44.118;27.258;2024-02-14T08:20:56;101225.09;;;9.04;100.00
6565;BME280;3316;44.118;27.258;2024-02-14T08:23:21;101260.22;;;9.27;100.00
6565;BME280;3316;44.118;27.258;2024-02-14T08:25:47;101230.34;;;9.05;100.00
6565;BME280;3316;44.118;27.258;2024-02-14T08:28:14;101267.19;;;9.17;100.00
6565;BME280;3316;44.118;27.258;2024-02-14T08:30:40;101265.41;;;9.10;100.00
6565;BME280;3316;44.118;27.258;2024-02-14T08:33:05;101277.69;;;9.14;100.00
6565;BME280;3316;44.118;27.258;2024-02-14T08:35:30;101215.41;;;8.93;100.00
6565;BME280;3316;44.118;27.258;2024-02-14T08:37:56;101263.69;;;9.17;100.00
6565;BME280;3316;44.118;27.258;2024-02-14T08:40:21;101274.31;;;9.39;100.00
6565;BME280;3316;44.118;27.258;2024-02-14T08:42:47;101282.25;;;9.54;100.00
6565;BME280;3316;44.118;27.258;2024-02-14T08:45:14;101284.81;;;9.42;100.00
6565;BME280;3316;44.118;27.258;2024-02-14T08:47:39;101233.94;;;9.19;100.00
6565;BME280;3316;44.118;27.258;2024-02-14T08:50:06;101283.19;;;9.65;100.00
6565;BME280;3316;44.118;27.258;2024-02-14T08:52:32;101295.44;;;9.66;100.00
6565;BME280;3316;44.118;27.258;2024-02-14T08:54:57;101295.38;;;9.51;100.00
6565;BME280;3316;44.118;27.258;2024-02-14T08:57:23;101300.69;;;9.63;100.00
6565;BME280;3316;44.118;27.258;2024-02-14T08:59:48;101291.16;;;9.93;100.00
6565;BME280;3316;44.118;27.258;2024-02-14T09:02:15;101288.50;;;9.86;100.00
6565;BME280;3316;44.118;27.258;2024-02-14T09:04:42;101292.03;;;9.95;100.00
6565;BME280;3316;44.118;27.258;2024-02-14T09:07:07;101284.84;;;9.50;100.00
6565;BME280;3316;44.118;27.258;2024-02-14T09:09:33;101312.06;;;9.62;100.00
6565;BME280;3316;44.118;27.258;2024-02-14T09:11:59;101281.28;;;9.40;100.00
6565;BME280;3316;44.118;27.258;2024-02-14T09:14:28;101329.47;;;9.39;100.00
6565;BME280;3316;44.118;27.258;2024-02-14T09:16:54;101324.13;;;9.24;100.00
6565;BME280;3316;44.118;27.258;2024-02-14T09:19:19;101322.41;;;9.31;100.00
6565;BME280;3316;44.118;27.258;2024-02-14T09:21:45;101329.47;;;9.38;100.00
6565;BME280;3316;44.118;27.258;2024-02-14T09:24:10;101330.31;;;9.32;100.00
6565;BME280;3316;44.118;27.258;2024-02-14T09:26:36;101326.75;;;9.29;100.00
6565;BME280;3316;44.118;27.258;2024-02-14T09:29:03;101315.47;;;9.43;100.00
6565;BME280;3316;44.118;27.258;2024-02-14T09:31:28;101313.78;;;9.53;100.00
6565;BME280;3316;44.118;27.258;2024-02-14T09:33:54;101313.72;;;9.45;100.00
6565;BME280;3316;44.118;27.258;2024-02-14T09:36:22;101324.25;;;9.45;100.00
6565;BME280;3316;44.118;27.258;2024-02-14T09:38:48;101297.84;;;9.20;100.00
6565;BME280;3316;44.118;27.258;2024-02-14T09:41:28;101317.28;;;9.56;100.00
6565;BME280;3316;44.118;27.258;2024-02-14T09:43:56;101301.59;;;9.65;100.00
6565;BME280;3316;44.118;27.258;2024-02-14T09:46:24;101296.34;;;9.74;100.00
6565;BME280;3316;44.118;27.258;2024-02-14T09:48:50;101314.75;;;9.80;100.00
6565;BME280;3316;44.118;27.258;2024-02-14T09:51:17;101301.59;;;9.76;100.00
6565;BME280;3316;44.118;27.258;2024-02-14T09:53:43;101279.66;;;9.66;100.00
6565;BME280;3316;44.118;27.258;2024-02-14T09:56:10;101277.00;;;9.60;100.00
6565;BME280;3316;44.118;27.258;2024-02-14T09:58:36;101306.91;;;9.86;100.00
6565;BME280;3316;44.118;27.258;2024-02-14T10:01:02;101283.19;;;9.65;100.00
6565;BME280;3316;44.118;27.258;2024-02-14T10:03:28;101285.94;;;10.06;100.00
6565;BME280;3316;44.118;27.258;2024-02-14T10:05:54;101305.19;;;10.07;100.00
6565;BME280;3316;44.118;27.258;2024-02-14T10:08:19;101291.16;;;9.96;100.00
6565;BME280;3316;44.118;27.258;2024-02-14T10:10:46;101280.72;;;10.21;100.00
6565;BME280;3316;44.118;27.258;2024-02-14T10:13:12;101299.94;;;10.04;100.00
6565;BME280;3316;44.118;27.258;2024-02-14T10:15:37;101285.91;;;9.93;100.00
6565;BME280;3316;44.118;27.258;2024-02-14T10:18:03;101286.78;;;9.95;100.00
6565;BME280;3316;44.118;27.258;2024-02-14T10:20:29;101275.41;;;10.08;100.00
6565;BME280;3316;44.118;27.258;2024-02-14T10:23:03;101286.75;;;9.92;100.00
6565;BME280;3316;44.118;27.258;2024-02-14T10:25:30;101291.03;;;9.62;100.00
6565;BME280;3316;44.118;27.258;2024-02-14T10:27:56;101252.50;;;9.57;100.00
6565;BME280;3316;44.118;27.258;2024-02-14T10:30:22;101291.97;;;9.76;100.00
6565;BME280;3316;44.118;27.258;2024-02-14T10:32:48;101270.03;;;9.68;100.00
6565;BME280;3316;44.118;27.258;2024-02-14T10:35:14;101254.22;;;9.58;100.00
6565;BME280;3316;44.118;27.258;2024-02-14T10:37:40;101249.84;;;9.49;100.00
6565;BME280;3316;44.118;27.258;2024-02-14T10:40:06;101256.91;;;9.70;100.00
6565;BME280;3316;44.118;27.258;2024-02-14T10:42:34;101278.88;;;9.96;100.00
6565;BME280;3316;44.118;27.258;2024-02-14T10:45:00;101253.47;;;9.84;100.00
6565;BME280;3316;44.118;27.258;2024-02-14T10:47:35;101280.63;;;9.99;100.00
6565;BME280;3316;44.118;27.258;2024-02-14T10:50:06;101254.34;;;10.03;100.00
6565;BME280;3316;44.118;27.258;2024-02-14T10:52:34;101280.72;;;10.24;100.00
6565;BME280;3316;44.118;27.258;2024-02-14T10:55:02;101275.44;;;10.17;100.00
6565;BME280;3316;44.118;27.258;2024-02-14T10:57:28;101267.56;;;10.12;100.00
6565;BME280;3316;44.118;27.258;2024-02-14T10:59:55;101292.09;;;10.19;100.00
6565;BME280;3316;44.118;27.258;2024-02-14T11:02:23;101278.97;;;10.10;100.00
6565;BME280;3316;44.118;27.258;2024-02-14T11:04:49;101283.38;;;10.26;100.00
6565;BME280;3316;44.118;27.258;2024-02-14T11:07:20;101281.63;;;10.28;100.00
6565;BME280;3316;44.118;27.258;2024-02-14T11:09:45;101283.28;;;10.09;100.00
6565;BME280;3316;44.118;27.258;2024-02-14T11:12:11;101224.53;;;9.78;100.00
6565;BME280;3316;44.118;27.258;2024-02-14T11:14:37;101285.13;;;10.30;100.00
6565;BME280;3316;44.118;27.258;2024-02-14T11:17:09;101283.38;;;10.41;100.00
6565;BME280;3316;44.118;27.258;2024-02-14T11:19:36;101286.00;;;10.68;100.00
6565;BME280;3316;44.118;27.258;2024-02-14T11:22:12;101279.84;;;10.63;100.00
6565;BME280;3316;44.118;27.258;2024-02-14T11:24:40;101214.03;;;10.09;100.00
6565;BME280;3316;44.118;27.258;2024-02-14T11:27:10;101251.78;;;10.30;100.00
6565;BME280;3316;44.118;27.258;2024-02-14T11:29:39;101271.94;;;10.63;100.00
6565;BME280;3316;44.118;27.258;2024-02-14T11:32:06;101284.28;;;10.61;100.00
6565;BME280;3316;44.118;27.258;2024-02-14T11:34:35;101278.97;;;10.79;100.00
6565;BME280;3316;44.118;27.258;2024-02-14T11:37:01;101289.53;;;10.56;100.00
6565;BME280;3316;44.118;27.258;2024-02-14T11:39:26;101263.22;;;10.49;100.00
6565;BME280;3316;44.118;27.258;2024-02-14T11:41:52;101283.34;;;10.38;100.00
6565;BME280;3316;44.118;27.258;2024-02-14T11:44:19;101269.34;;;10.37;100.00
6565;BME280;3316;44.118;27.258;2024-02-14T11:46:47;101298.28;;;10.43;100.00
6565;BME280;3316;44.118;27.258;2024-02-14T11:49:13;101292.13;;;10.26;100.00
6565;BME280;3316;44.118;27.258;2024-02-14T11:51:38;101296.53;;;10.35;100.00
6565;BME280;3316;44.118;27.258;2024-02-14T11:54:06;101292.97;;;10.16;100.00
6565;BME280;3316;44.118;27.258;2024-02-14T11:56:33;101253.47;;;9.91;100.00
6565;BME280;3316;44.118;27.258;2024-02-14T11:59:02;101295.66;;;10.45;100.00
6565;BME280;3316;44.118;27.258;2024-02-14T12:01:32;101292.16;;;10.56;100.00
6565;BME280;3316;44.118;27.258;2024-02-14T12:03:59;101265.81;;;10.34;100.00
6565;BME280;3316;44.118;27.258;2024-02-14T12:06:27;101293.88;;;10.38;100.00
6565;BME280;3316;44.118;27.258;2024-02-14T12:08:54;101297.38;;;10.25;100.00
6565;BME280;3316;44.118;27.258;2024-02-14T12:11:19;101296.53;;;10.48;100.00
6565;BME280;3316;44.118;27.258;2024-02-14T12:13:49;101276.34;;;10.40;100.00
6565;BME280;3316;44.118;27.258;2024-02-14T12:16:15;101290.38;;;10.27;100.00
6565;BME280;3316;44.118;27.258;2024-02-14T12:18:41;101255.22;;;10.07;100.00
6565;BME280;3316;44.118;27.258;2024-02-14T12:21:07;101249.09;;;10.02;100.00
6565;BME280;3316;44.118;27.258;2024-02-14T12:23:33;101292.16;;;10.28;100.00
6565;BME280;3316;44.118;27.258;2024-02-14T12:26:02;101295.56;;;10.04;100.00
6565;BME280;3316;44.118;27.258;2024-02-14T12:28:29;101263.06;;;9.78;100.00
6565;BME280;3316;44.118;27.258;2024-02-14T12:30:56;101284.06;;;9.73;100.00
6565;BME280;3316;44.118;27.258;2024-02-14T12:33:23;101234.06;;;9.51;100.00
6565;BME280;3316;44.118;27.258;2024-02-14T12:35:50;101298.03;;;9.62;100.00
6565;BME280;3316;44.118;27.258;2024-02-14T12:38:18;101299.75;;;9.52;100.00
6565;BME280;3316;44.118;27.258;2024-02-14T12:40:44;101276.91;;;9.33;100.00
6565;BME280;3316;44.118;27.258;2024-02-14T12:43:11;101303.19;;;9.41;100.00
6565;BME280;3316;44.118;27.258;2024-02-14T12:45:37;101281.22;;;9.25;100.00
6565;BME280;3316;44.118;27.258;2024-02-14T12:48:03;101309.38;;;9.47;100.00
6565;BME280;3316;44.118;27.258;2024-02-14T12:50:31;101295.44;;;9.63;100.00
6565;BME280;3316;44.118;27.258;2024-02-14T12:52:57;101309.41;;;9.53;100.00
6565;BME280;3316;44.118;27.258;2024-02-14T12:55:23;101311.09;;;9.45;100.00